Hill, Texas
Current Conditions -  °F | °C
As of 3:35 AM on Saturday 20 Dec 2014 (Local Time) from KGYB Reporting Station
Overcast Overcast  
Wind Chill: 44°   Ceiling: 1000
Heat Index: 48°   Visibility: 10mi
Dew Point: 46°   Wind: 9mph
Humidity: 90%   Direction: 10°N
Pressure: 30.21"   Gusts: NA
Location:  30.1644°N, 97.2747°W
Report Text: KGYB 200935Z AUTO 01008KT 10SM BKN010 OVC014 09/08 A3021 RMK AO2 T00900075
Loading
Personal Weather Stations






























Interactive Weather Map New forecast layout! Learn more

10-Day Weather Forecast

Advertisements
Track Severe Weather on mobile